sensor_id;sensor_type;location;lat;lon;timestamp;temperature;humidity
47857;DHT22;33618;49.972;8.242;2023-02-18T00:01:13;12.40;99.90
47857;DHT22;33618;49.972;8.242;2023-02-18T00:03:40;12.50;99.90
47857;DHT22;33618;49.972;8.242;2023-02-18T00:06:14;12.50;99.90
47857;DHT22;33618;49.972;8.242;2023-02-18T00:08:42;12.50;99.90
47857;DHT22;33618;49.972;8.242;2023-02-18T00:11:10;12.40;99.90
47857;DHT22;33618;49.972;8.242;2023-02-18T00:13:37;12.50;99.90
47857;DHT22;33618;49.972;8.242;2023-02-18T00:16:05;12.40;99.90
47857;DHT22;33618;49.972;8.242;2023-02-18T00:18:33;12.50;99.90
47857;DHT22;33618;49.972;8.242;2023-02-18T00:21:03;12.50;99.90
47857;DHT22;33618;49.972;8.242;2023-02-18T00:23:31;12.50;99.90
47857;DHT22;33618;49.972;8.242;2023-02-18T00:28:30;12.40;99.90
47857;DHT22;33618;49.972;8.242;2023-02-18T00:30:57;12.40;99.90
47857;DHT22;33618;49.972;8.242;2023-02-18T00:33:24;12.40;99.90
47857;DHT22;33618;49.972;8.242;2023-02-18T00:35:51;12.40;99.90
47857;DHT22;33618;49.972;8.242;2023-02-18T00:38:18;12.40;99.90
47857;DHT22;33618;49.972;8.242;2023-02-18T00:40:46;12.40;99.90
47857;DHT22;33618;49.972;8.242;2023-02-18T00:43:13;12.50;99.90
47857;DHT22;33618;49.972;8.242;2023-02-18T00:45:40;12.40;99.90
47857;DHT22;33618;49.972;8.242;2023-02-18T00:48:07;12.50;99.90
47857;DHT22;33618;49.972;8.242;2023-02-18T00:50:34;12.40;99.90
47857;DHT22;33618;49.972;8.242;2023-02-18T00:53:01;12.40;99.90
47857;DHT22;33618;49.972;8.242;2023-02-18T00:55:28;12.40;99.90
47857;DHT22;33618;49.972;8.242;2023-02-18T00:57:55;12.40;99.90
47857;DHT22;33618;49.972;8.242;2023-02-18T01:00:21;12.40;99.90
47857;DHT22;33618;49.972;8.242;2023-02-18T01:02:51;12.30;99.90
47857;DHT22;33618;49.972;8.242;2023-02-18T01:05:20;12.30;99.90
47857;DHT22;33618;49.972;8.242;2023-02-18T01:07:47;12.30;99.90
47857;DHT22;33618;49.972;8.242;2023-02-18T01:10:14;12.30;99.90
47857;DHT22;33618;49.972;8.242;2023-02-18T01:12:44;12.30;99.90
47857;DHT22;33618;49.972;8.242;2023-02-18T01:15:14;12.30;99.90
47857;DHT22;33618;49.972;8.242;2023-02-18T01:17:41;12.30;99.90
47857;DHT22;33618;49.972;8.242;2023-02-18T01:20:09;12.30;99.90
47857;DHT22;33618;49.972;8.242;2023-02-18T01:22:37;12.20;99.90
47857;DHT22;33618;49.972;8.242;2023-02-18T01:25:04;12.30;99.90
47857;DHT22;33618;49.972;8.242;2023-02-18T01:27:31;12.20;99.90
47857;DHT22;33618;49.972;8.242;2023-02-18T01:29:58;12.20;99.90
47857;DHT22;33618;49.972;8.242;2023-02-18T01:32:26;12.10;99.90
47857;DHT22;33618;49.972;8.242;2023-02-18T01:34:52;12.10;99.90
47857;DHT22;33618;49.972;8.242;2023-02-18T01:37:19;12.10;99.90
47857;DHT22;33618;49.972;8.242;2023-02-18T01:39:46;12.10;99.90
47857;DHT22;33618;49.972;8.242;2023-02-18T01:42:20;12.10;99.90
47857;DHT22;33618;49.972;8.242;2023-02-18T01:44:48;12.10;99.90
47857;DHT22;33618;49.972;8.242;2023-02-18T01:47:16;12.10;99.90
47857;DHT22;33618;49.972;8.242;2023-02-18T01:49:50;12.00;99.90
47857;DHT22;33618;49.972;8.242;2023-02-18T01:52:23;12.00;99.90
47857;DHT22;33618;49.972;8.242;2023-02-18T01:54:55;12.00;99.90
47857;DHT22;33618;49.972;8.242;2023-02-18T01:57:34;12.00;99.90
47857;DHT22;33618;49.972;8.242;2023-02-18T02:00:09;12.00;99.90
47857;DHT22;33618;49.972;8.242;2023-02-18T02:02:41;12.00;99.90
47857;DHT22;33618;49.972;8.242;2023-02-18T02:05:08;12.00;99.90
47857;DHT22;33618;49.972;8.242;2023-02-18T02:11:35;12.00;99.90
47857;DHT22;33618;49.972;8.242;2023-02-18T02:14:43;12.00;99.90
47857;DHT22;33618;49.972;8.242;2023-02-18T02:17:20;11.90;99.90
47857;DHT22;33618;49.972;8.242;2023-02-18T02:31:04;11.90;99.90
47857;DHT22;33618;49.972;8.242;2023-02-18T02:36:54;11.90;99.90
47857;DHT22;33618;49.972;8.242;2023-02-18T02:39:44;11.90;99.90
47857;DHT22;33618;49.972;8.242;2023-02-18T02:45:24;11.90;99.90
47857;DHT22;33618;49.972;8.242;2023-02-18T02:50:34;11.90;99.90
47857;DHT22;33618;49.972;8.242;2023-02-18T02:53:10;11.90;99.90
47857;DHT22;33618;49.972;8.242;2023-02-18T02:55:39;11.90;99.90
47857;DHT22;33618;49.972;8.242;2023-02-18T02:58:06;11.90;99.90
47857;DHT22;33618;49.972;8.242;2023-02-18T03:18:00;11.80;99.90
47857;DHT22;33618;49.972;8.242;2023-02-18T03:20:55;11.80;99.90
47857;DHT22;33618;49.972;8.242;2023-02-18T03:23:36;11.90;99.90
47857;DHT22;33618;49.972;8.242;2023-02-18T03:26:05;11.80;99.90
47857;DHT22;33618;49.972;8.242;2023-02-18T03:28:34;11.80;99.90
47857;DHT22;33618;49.972;8.242;2023-02-18T03:31:08;11.80;99.90
47857;DHT22;33618;49.972;8.242;2023-02-18T03:33:45;11.80;99.90
47857;DHT22;33618;49.972;8.242;2023-02-18T03:36:13;11.90;99.90
47857;DHT22;33618;49.972;8.242;2023-02-18T03:38:50;11.90;99.90
47857;DHT22;33618;49.972;8.242;2023-02-18T03:41:19;11.90;99.90
47857;DHT22;33618;49.972;8.242;2023-02-18T03:43:49;11.90;99.90
47857;DHT22;33618;49.972;8.242;2023-02-18T03:46:16;11.90;99.90
47857;DHT22;33618;49.972;8.242;2023-02-18T03:48:44;11.90;99.90
47857;DHT22;33618;49.972;8.242;2023-02-18T03:51:11;11.90;99.90
47857;DHT22;33618;49.972;8.242;2023-02-18T03:53:38;11.90;99.90
47857;DHT22;33618;49.972;8.242;2023-02-18T03:56:05;11.90;99.90
47857;DHT22;33618;49.972;8.242;2023-02-18T03:58:33;11.90;99.90
47857;DHT22;33618;49.972;8.242;2023-02-18T04:01:00;11.90;99.90
47857;DHT22;33618;49.972;8.242;2023-02-18T04:03:27;11.90;99.90
47857;DHT22;33618;49.972;8.242;2023-02-18T04:05:54;11.80;99.90
47857;DHT22;33618;49.972;8.242;2023-02-18T04:08:22;11.80;99.90
47857;DHT22;33618;49.972;8.242;2023-02-18T04:10:49;11.70;99.90
47857;DHT22;33618;49.972;8.242;2023-02-18T04:13:16;11.70;99.90
47857;DHT22;33618;49.972;8.242;2023-02-18T04:15:44;11.70;99.90
47857;DHT22;33618;49.972;8.242;2023-02-18T04:18:11;11.60;99.90
47857;DHT22;33618;49.972;8.242;2023-02-18T04:20:38;11.60;99.90
47857;DHT22;33618;49.972;8.242;2023-02-18T04:23:05;11.60;99.90
47857;DHT22;33618;49.972;8.242;2023-02-18T04:25:33;11.60;99.90
47857;DHT22;33618;49.972;8.242;2023-02-18T04:28:00;11.60;99.90
47857;DHT22;33618;49.972;8.242;2023-02-18T04:30:27;11.60;99.90
47857;DHT22;33618;49.972;8.242;2023-02-18T04:32:54;11.50;99.90
47857;DHT22;33618;49.972;8.242;2023-02-18T04:35:21;11.50;99.90
47857;DHT22;33618;49.972;8.242;2023-02-18T04:37:49;11.40;99.90
47857;DHT22;33618;49.972;8.242;2023-02-18T04:40:16;11.30;99.90
47857;DHT22;33618;49.972;8.242;2023-02-18T04:42:43;11.30;99.90
47857;DHT22;33618;49.972;8.242;2023-02-18T04:45:10;11.30;99.90
47857;DHT22;33618;49.972;8.242;2023-02-18T04:47:37;11.30;99.90
47857;DHT22;33618;49.972;8.242;2023-02-18T04:50:04;11.30;99.90
47857;DHT22;33618;49.972;8.242;2023-02-18T04:52:31;11.20;99.90
47857;DHT22;33618;49.972;8.242;2023-02-18T04:54:58;11.20;99.90
47857;DHT22;33618;49.972;8.242;2023-02-18T04:57:25;11.20;99.90
47857;DHT22;33618;49.972;8.242;2023-02-18T04:59:52;11.20;99.90
47857;DHT22;33618;49.972;8.242;2023-02-18T05:02:19;11.20;99.90
47857;DHT22;33618;49.972;8.242;2023-02-18T05:04:46;11.20;99.90
47857;DHT22;33618;49.972;8.242;2023-02-18T05:07:13;11.20;99.90
47857;DHT22;33618;49.972;8.242;2023-02-18T05:09:40;11.20;99.90
47857;DHT22;33618;49.972;8.242;2023-02-18T05:12:07;11.20;99.90
47857;DHT22;33618;49.972;8.242;2023-02-18T05:14:34;11.20;99.90
47857;DHT22;33618;49.972;8.242;2023-02-18T05:17:01;11.20;99.90
47857;DHT22;33618;49.972;8.242;2023-02-18T05:19:28;11.30;99.90
47857;DHT22;33618;49.972;8.242;2023-02-18T05:21:55;11.30;99.90
47857;DHT22;33618;49.972;8.242;2023-02-18T05:24:21;11.30;99.90
47857;DHT22;33618;49.972;8.242;2023-02-18T05:26:49;11.30;99.90
47857;DHT22;33618;49.972;8.242;2023-02-18T05:29:16;11.40;99.90
47857;DHT22;33618;49.972;8.242;2023-02-18T05:31:43;11.40;99.90
47857;DHT22;33618;49.972;8.242;2023-02-18T05:34:10;11.30;99.90
47857;DHT22;33618;49.972;8.242;2023-02-18T05:36:37;11.30;99.90
47857;DHT22;33618;49.972;8.242;2023-02-18T05:39:04;11.30;99.90
47857;DHT22;33618;49.972;8.242;2023-02-18T05:41:31;11.30;99.90
47857;DHT22;33618;49.972;8.242;2023-02-18T05:43:58;11.30;99.90
47857;DHT22;33618;49.972;8.242;2023-02-18T05:46:44;11.30;99.90
47857;DHT22;33618;49.972;8.242;2023-02-18T05:49:11;11.30;99.90
47857;DHT22;33618;49.972;8.242;2023-02-18T05:51:38;11.40;99.90
47857;DHT22;33618;49.972;8.242;2023-02-18T05:54:04;11.40;99.90
47857;DHT22;33618;49.972;8.242;2023-02-18T05:56:31;11.50;99.90
47857;DHT22;33618;49.972;8.242;2023-02-18T05:58:58;11.50;99.90
47857;DHT22;33618;49.972;8.242;2023-02-18T06:01:26;11.40;99.90
47857;DHT22;33618;49.972;8.242;2023-02-18T06:03:52;11.30;99.90
47857;DHT22;33618;49.972;8.242;2023-02-18T06:06:19;11.30;99.90
47857;DHT22;33618;49.972;8.242;2023-02-18T06:08:46;11.30;99.90
47857;DHT22;33618;49.972;8.242;2023-02-18T06:11:13;11.30;99.90
47857;DHT22;33618;49.972;8.242;2023-02-18T06:13:40;11.30;99.90
47857;DHT22;33618;49.972;8.242;2023-02-18T06:16:07;11.40;99.90
47857;DHT22;33618;49.972;8.242;2023-02-18T06:18:34;11.30;99.90
47857;DHT22;33618;49.972;8.242;2023-02-18T06:21:01;11.40;99.90
47857;DHT22;33618;49.972;8.242;2023-02-18T06:23:28;11.30;99.90
47857;DHT22;33618;49.972;8.242;2023-02-18T06:25:55;11.30;99.90
47857;DHT22;33618;49.972;8.242;2023-02-18T06:28:22;11.40;99.90
47857;DHT22;33618;49.972;8.242;2023-02-18T06:30:49;11.40;99.90
47857;DHT22;33618;49.972;8.242;2023-02-18T06:33:16;11.40;99.90
47857;DHT22;33618;49.972;8.242;2023-02-18T06:35:55;11.40;99.90
47857;DHT22;33618;49.972;8.242;2023-02-18T06:38:23;11.40;99.90
47857;DHT22;33618;49.972;8.242;2023-02-18T06:40:50;11.30;99.90
47857;DHT22;33618;49.972;8.242;2023-02-18T06:43:18;11.40;99.90
47857;DHT22;33618;49.972;8.242;2023-02-18T06:45:45;11.30;99.90
47857;DHT22;33618;49.972;8.242;2023-02-18T06:48:12;11.40;99.90
47857;DHT22;33618;49.972;8.242;2023-02-18T06:50:40;11.40;99.90
47857;DHT22;33618;49.972;8.242;2023-02-18T06:53:08;11.30;99.90
47857;DHT22;33618;49.972;8.242;2023-02-18T06:55:35;11.30;99.90
47857;DHT22;33618;49.972;8.242;2023-02-18T06:58:03;11.30;99.90
47857;DHT22;33618;49.972;8.242;2023-02-18T07:00:30;11.30;99.90
47857;DHT22;33618;49.972;8.242;2023-02-18T07:02:57;11.30;99.90
47857;DHT22;33618;49.972;8.242;2023-02-18T07:05:24;11.30;99.90
47857;DHT22;33618;49.972;8.242;2023-02-18T07:07:51;11.30;99.90
47857;DHT22;33618;49.972;8.242;2023-02-18T07:10:18;11.30;99.90
47857;DHT22;33618;49.972;8.242;2023-02-18T07:12:45;11.30;99.90
47857;DHT22;33618;49.972;8.242;2023-02-18T07:15:13;11.30;99.90
47857;DHT22;33618;49.972;8.242;2023-02-18T07:17:39;11.30;99.90
47857;DHT22;33618;49.972;8.242;2023-02-18T07:20:08;11.30;99.90
47857;DHT22;33618;49.972;8.242;2023-02-18T07:22:35;11.30;99.90
47857;DHT22;33618;49.972;8.242;2023-02-18T07:25:02;11.20;99.90
47857;DHT22;33618;49.972;8.242;2023-02-18T07:27:29;11.30;99.90
47857;DHT22;33618;49.972;8.242;2023-02-18T07:29:56;11.30;99.90
47857;DHT22;33618;49.972;8.242;2023-02-18T07:32:24;11.30;99.90
47857;DHT22;33618;49.972;8.242;2023-02-18T07:34:51;11.30;99.90
47857;DHT22;33618;49.972;8.242;2023-02-18T07:37:19;11.30;99.90
47857;DHT22;33618;49.972;8.242;2023-02-18T07:39:46;11.30;99.90
47857;DHT22;33618;49.972;8.242;2023-02-18T07:42:13;11.30;99.90
47857;DHT22;33618;49.972;8.242;2023-02-18T07:44:40;11.40;99.90
47857;DHT22;33618;49.972;8.242;2023-02-18T07:47:11;11.40;99.90
47857;DHT22;33618;49.972;8.242;2023-02-18T07:49:38;11.40;99.90
47857;DHT22;33618;49.972;8.242;2023-02-18T07:52:05;11.40;99.90
47857;DHT22;33618;49.972;8.242;2023-02-18T07:54:32;11.40;99.90
47857;DHT22;33618;49.972;8.242;2023-02-18T07:56:59;11.40;99.90
47857;DHT22;33618;49.972;8.242;2023-02-18T07:59:26;11.40;99.90
47857;DHT22;33618;49.972;8.242;2023-02-18T08:01:53;11.50;99.90
47857;DHT22;33618;49.972;8.242;2023-02-18T08:04:20;11.50;99.90
47857;DHT22;33618;49.972;8.242;2023-02-18T08:06:48;11.50;99.90
47857;DHT22;33618;49.972;8.242;2023-02-18T08:09:16;11.50;99.90
47857;DHT22;33618;49.972;8.242;2023-02-18T08:11:43;11.50;99.90
47857;DHT22;33618;49.972;8.242;2023-02-18T08:14:10;11.50;99.90
47857;DHT22;33618;49.972;8.242;2023-02-18T08:16:37;11.50;99.90
47857;DHT22;33618;49.972;8.242;2023-02-18T08:19:04;11.50;99.90
47857;DHT22;33618;49.972;8.242;2023-02-18T08:21:32;11.60;99.90
47857;DHT22;33618;49.972;8.242;2023-02-18T08:23:59;11.60;99.90
47857;DHT22;33618;49.972;8.242;2023-02-18T08:26:26;11.70;99.90
47857;DHT22;33618;49.972;8.242;2023-02-18T08:28:53;11.70;99.90
47857;DHT22;33618;49.972;8.242;2023-02-18T08:31:23;11.70;99.90
47857;DHT22;33618;49.972;8.242;2023-02-18T08:33:53;11.70;99.90
47857;DHT22;33618;49.972;8.242;2023-02-18T08:36:20;11.70;99.90
47857;DHT22;33618;49.972;8.242;2023-02-18T08:38:48;11.70;99.90
47857;DHT22;33618;49.972;8.242;2023-02-18T08:41:15;11.70;99.90
47857;DHT22;33618;49.972;8.242;2023-02-18T08:43:45;11.80;99.90
47857;DHT22;33618;49.972;8.242;2023-02-18T08:46:13;11.90;99.90
47857;DHT22;33618;49.972;8.242;2023-02-18T08:48:45;11.90;99.90
47857;DHT22;33618;49.972;8.242;2023-02-18T08:51:21;12.00;99.90
47857;DHT22;33618;49.972;8.242;2023-02-18T08:53:48;12.00;99.90
47857;DHT22;33618;49.972;8.242;2023-02-18T08:56:15;11.90;99.90
47857;DHT22;33618;49.972;8.242;2023-02-18T08:58:43;12.00;99.90
47857;DHT22;33618;49.972;8.242;2023-02-18T09:01:12;12.00;99.90
47857;DHT22;33618;49.972;8.242;2023-02-18T09:03:40;12.00;99.90
47857;DHT22;33618;49.972;8.242;2023-02-18T09:06:07;12.00;99.90
47857;DHT22;33618;49.972;8.242;2023-02-18T09:08:34;12.00;99.90
47857;DHT22;33618;49.972;8.242;2023-02-18T09:11:02;12.00;99.90
47857;DHT22;33618;49.972;8.242;2023-02-18T09:13:34;12.00;99.90
47857;DHT22;33618;49.972;8.242;2023-02-18T09:16:04;12.10;99.90
47857;DHT22;33618;49.972;8.242;2023-02-18T09:18:33;12.20;99.50
47857;DHT22;33618;49.972;8.242;2023-02-18T09:21:05;12.20;99.00
47857;DHT22;33618;49.972;8.242;2023-02-18T09:23:33;12.20;99.70
47857;DHT22;33618;49.972;8.242;2023-02-18T09:26:07;12.30;99.70
47857;DHT22;33618;49.972;8.242;2023-02-18T09:28:35;12.30;99.20
47857;DHT22;33618;49.972;8.242;2023-02-18T09:31:04;12.20;99.70
47857;DHT22;33618;49.972;8.242;2023-02-18T09:33:34;12.10;99.40
47857;DHT22;33618;49.972;8.242;2023-02-18T09:36:02;12.10;99.30
47857;DHT22;33618;49.972;8.242;2023-02-18T09:38:29;12.10;99.80
47857;DHT22;33618;49.972;8.242;2023-02-18T09:40:58;12.00;99.70
47857;DHT22;33618;49.972;8.242;2023-02-18T09:43:34;12.00;99.60
47857;DHT22;33618;49.972;8.242;2023-02-18T09:46:03;12.00;99.60
47857;DHT22;33618;49.972;8.242;2023-02-18T09:48:36;12.00;99.70
47857;DHT22;33618;49.972;8.242;2023-02-18T09:51:03;12.00;99.90
47857;DHT22;33618;49.972;8.242;2023-02-18T09:53:30;12.00;99.70
47857;DHT22;33618;49.972;8.242;2023-02-18T09:55:59;12.00;99.90
47857;DHT22;33618;49.972;8.242;2023-02-18T09:58:29;12.00;99.90
47857;DHT22;33618;49.972;8.242;2023-02-18T10:03:38;11.90;99.90
47857;DHT22;33618;49.972;8.242;2023-02-18T10:06:15;11.80;99.90
47857;DHT22;33618;49.972;8.242;2023-02-18T10:08:45;11.80;99.90
47857;DHT22;33618;49.972;8.242;2023-02-18T10:11:15;11.80;99.90
47857;DHT22;33618;49.972;8.242;2023-02-18T10:13:43;11.80;99.80
47857;DHT22;33618;49.972;8.242;2023-02-18T10:16:16;11.80;99.70
47857;DHT22;33618;49.972;8.242;2023-02-18T10:18:45;11.90;99.80
47857;DHT22;33618;49.972;8.242;2023-02-18T10:21:19;11.90;99.60
47857;DHT22;33618;49.972;8.242;2023-02-18T10:24:31;11.80;99.60
47857;DHT22;33618;49.972;8.242;2023-02-18T10:26:50;11.80;99.90
47857;DHT22;33618;49.972;8.242;2023-02-18T10:29:19;11.80;99.90
47857;DHT22;33618;49.972;8.242;2023-02-18T10:34:54;11.80;99.90
47857;DHT22;33618;49.972;8.242;2023-02-18T10:40:52;11.80;99.90
47857;DHT22;33618;49.972;8.242;2023-02-18T10:52:17;12.00;99.40
47857;DHT22;33618;49.972;8.242;2023-02-18T10:54:57;12.00;99.00
47857;DHT22;33618;49.972;8.242;2023-02-18T10:57:25;12.00;99.10
47857;DHT22;33618;49.972;8.242;2023-02-18T11:00:17;12.00;99.30
47857;DHT22;33618;49.972;8.242;2023-02-18T11:02:43;12.00;98.90
47857;DHT22;33618;49.972;8.242;2023-02-18T11:05:23;12.00;99.20
47857;DHT22;33618;49.972;8.242;2023-02-18T11:07:53;12.00;99.30
47857;DHT22;33618;49.972;8.242;2023-02-18T11:10:32;12.00;98.70
47857;DHT22;33618;49.972;8.242;2023-02-18T11:13:08;12.00;99.30
47857;DHT22;33618;49.972;8.242;2023-02-18T11:15:36;12.00;99.40
47857;DHT22;33618;49.972;8.242;2023-02-18T11:18:36;12.00;99.30
47857;DHT22;33618;49.972;8.242;2023-02-18T11:21:18;12.00;99.60
47857;DHT22;33618;49.972;8.242;2023-02-18T11:23:49;12.10;99.20
47857;DHT22;33618;49.972;8.242;2023-02-18T11:26:24;12.10;99.20
47857;DHT22;33618;49.972;8.242;2023-02-18T11:31:44;12.00;99.40
47857;DHT22;33618;49.972;8.242;2023-02-18T11:34:18;12.00;99.30
47857;DHT22;33618;49.972;8.242;2023-02-18T11:36:47;12.00;99.90
47857;DHT22;33618;49.972;8.242;2023-02-18T11:42:11;12.10;99.90
47857;DHT22;33618;49.972;8.242;2023-02-18T11:44:38;12.10;99.90
47857;DHT22;33618;49.972;8.242;2023-02-18T11:49:44;12.10;99.90
47857;DHT22;33618;49.972;8.242;2023-02-18T11:52:26;12.20;99.90
47857;DHT22;33618;49.972;8.242;2023-02-18T11:57:36;12.30;99.70
47857;DHT22;33618;49.972;8.242;2023-02-18T12:00:13;12.40;99.70
47857;DHT22;33618;49.972;8.242;2023-02-18T12:02:41;12.50;99.50
47857;DHT22;33618;49.972;8.242;2023-02-18T12:05:23;12.50;99.30
47857;DHT22;33618;49.972;8.242;2023-02-18T12:08:16;12.50;99.10
47857;DHT22;33618;49.972;8.242;2023-02-18T12:10:50;12.60;99.40
47857;DHT22;33618;49.972;8.242;2023-02-18T12:13:26;12.60;99.20
47857;DHT22;33618;49.972;8.242;2023-02-18T12:16:12;12.60;98.80
47857;DHT22;33618;49.972;8.242;2023-02-18T12:21:39;12.60;99.10
47857;DHT22;33618;49.972;8.242;2023-02-18T12:24:37;12.70;98.90
47857;DHT22;33618;49.972;8.242;2023-02-18T12:27:28;12.70;99.20
47857;DHT22;33618;49.972;8.242;2023-02-18T12:35:52;13.30;97.80
47857;DHT22;33618;49.972;8.242;2023-02-18T12:38:37;13.10;97.60
47857;DHT22;33618;49.972;8.242;2023-02-18T13:12:10;16.30;91.40
47857;DHT22;33618;49.972;8.242;2023-02-18T13:14:58;16.40;90.90
47857;DHT22;33618;49.972;8.242;2023-02-18T13:17:30;15.70;92.20
47857;DHT22;33618;49.972;8.242;2023-02-18T13:20:02;15.70;92.10
47857;DHT22;33618;49.972;8.242;2023-02-18T13:22:30;15.20;92.60
47857;DHT22;33618;49.972;8.242;2023-02-18T13:24:59;14.80;92.90
47857;DHT22;33618;49.972;8.242;2023-02-18T13:27:36;14.80;93.60
47857;DHT22;33618;49.972;8.242;2023-02-18T13:35:26;13.60;97.00
47857;DHT22;33618;49.972;8.242;2023-02-18T13:38:31;13.30;99.50
47857;DHT22;33618;49.972;8.242;2023-02-18T13:41:03;12.70;99.90
47857;DHT22;33618;49.972;8.242;2023-02-18T13:43:34;12.40;99.90
47857;DHT22;33618;49.972;8.242;2023-02-18T13:46:16;11.90;99.90
47857;DHT22;33618;49.972;8.242;2023-02-18T13:48:49;11.70;99.90
47857;DHT22;33618;49.972;8.242;2023-02-18T13:56:34;11.50;99.90
47857;DHT22;33618;49.972;8.242;2023-02-18T13:59:23;11.50;99.90
47857;DHT22;33618;49.972;8.242;2023-02-18T14:01:54;11.60;99.90
47857;DHT22;33618;49.972;8.242;2023-02-18T14:09:58;11.70;99.90
47857;DHT22;33618;49.972;8.242;2023-02-18T14:22:59;11.60;99.90
47857;DHT22;33618;49.972;8.242;2023-02-18T14:25:35;11.60;99.90
47857;DHT22;33618;49.972;8.242;2023-02-18T14:31:04;11.70;99.90
47857;DHT22;33618;49.972;8.242;2023-02-18T14:33:34;11.80;99.90
47857;DHT22;33618;49.972;8.242;2023-02-18T14:38:58;11.50;99.90
47857;DHT22;33618;49.972;8.242;2023-02-18T14:44:41;11.30;99.90
47857;DHT22;33618;49.972;8.242;2023-02-18T14:47:35;11.40;99.90
47857;DHT22;33618;49.972;8.242;2023-02-18T14:50:14;11.50;99.90
47857;DHT22;33618;49.972;8.242;2023-02-18T14:53:25;11.60;99.90
47857;DHT22;33618;49.972;8.242;2023-02-18T14:55:39;11.60;99.90
47857;DHT22;33618;49.972;8.242;2023-02-18T14:58:27;11.70;99.90
47857;DHT22;33618;49.972;8.242;2023-02-18T15:00:55;11.80;99.90
47857;DHT22;33618;49.972;8.242;2023-02-18T15:03:25;11.80;99.90
47857;DHT22;33618;49.972;8.242;2023-02-18T15:05:53;11.80;99.90
47857;DHT22;33618;49.972;8.242;2023-02-18T15:08:21;11.90;99.90
47857;DHT22;33618;49.972;8.242;2023-02-18T15:16:01;11.80;99.90
47857;DHT22;33618;49.972;8.242;2023-02-18T15:21:04;11.90;99.90
47857;DHT22;33618;49.972;8.242;2023-02-18T15:23:37;11.90;99.90
47857;DHT22;33618;49.972;8.242;2023-02-18T15:26:06;11.90;99.90
47857;DHT22;33618;49.972;8.242;2023-02-18T15:28:49;11.90;99.90
47857;DHT22;33618;49.972;8.242;2023-02-18T15:31:17;11.80;99.90
47857;DHT22;33618;49.972;8.242;2023-02-18T15:33:46;11.90;99.90
47857;DHT22;33618;49.972;8.242;2023-02-18T15:36:14;11.90;99.90
47857;DHT22;33618;49.972;8.242;2023-02-18T15:38:44;11.80;99.90
47857;DHT22;33618;49.972;8.242;2023-02-18T15:41:14;11.80;99.90
47857;DHT22;33618;49.972;8.242;2023-02-18T15:44:02;11.80;99.90
47857;DHT22;33618;49.972;8.242;2023-02-18T15:46:30;11.80;99.90
47857;DHT22;33618;49.972;8.242;2023-02-18T15:48:59;11.80;99.90
47857;DHT22;33618;49.972;8.242;2023-02-18T15:51:28;11.80;99.90
47857;DHT22;33618;49.972;8.242;2023-02-18T15:53:58;11.80;99.90
47857;DHT22;33618;49.972;8.242;2023-02-18T15:56:33;11.80;99.90
47857;DHT22;33618;49.972;8.242;2023-02-18T15:59:23;11.80;99.90
47857;DHT22;33618;49.972;8.242;2023-02-18T16:01:56;11.80;99.90
47857;DHT22;33618;49.972;8.242;2023-02-18T16:04:36;11.80;99.90
47857;DHT22;33618;49.972;8.242;2023-02-18T16:07:28;11.70;99.90
47857;DHT22;33618;49.972;8.242;2023-02-18T16:10:38;11.70;99.90
47857;DHT22;33618;49.972;8.242;2023-02-18T16:13:12;11.70;99.90
47857;DHT22;33618;49.972;8.242;2023-02-18T16:15:43;11.60;99.90
47857;DHT22;33618;49.972;8.242;2023-02-18T16:18:36;11.50;99.90
47857;DHT22;33618;49.972;8.242;2023-02-18T16:21:24;11.50;99.90
47857;DHT22;33618;49.972;8.242;2023-02-18T16:23:57;11.40;99.90
47857;DHT22;33618;49.972;8.242;2023-02-18T16:31:40;11.30;99.90
47857;DHT22;33618;49.972;8.242;2023-02-18T16:34:07;11.30;99.90
47857;DHT22;33618;49.972;8.242;2023-02-18T16:36:34;11.30;99.90
47857;DHT22;33618;49.972;8.242;2023-02-18T16:39:01;11.20;99.90
47857;DHT22;33618;49.972;8.242;2023-02-18T16:41:28;11.20;99.90
47857;DHT22;33618;49.972;8.242;2023-02-18T16:43:59;11.20;99.90
47857;DHT22;33618;49.972;8.242;2023-02-18T16:46:27;11.10;99.90
47857;DHT22;33618;49.972;8.242;2023-02-18T16:48:57;11.10;99.90
47857;DHT22;33618;49.972;8.242;2023-02-18T16:51:34;11.10;99.90
47857;DHT22;33618;49.972;8.242;2023-02-18T16:54:01;11.10;99.90
47857;DHT22;33618;49.972;8.242;2023-02-18T16:56:31;11.00;99.90
47857;DHT22;33618;49.972;8.242;2023-02-18T16:59:01;11.00;99.90
47857;DHT22;33618;49.972;8.242;2023-02-18T17:01:39;11.00;99.90
47857;DHT22;33618;49.972;8.242;2023-02-18T17:04:11;11.00;99.90
47857;DHT22;33618;49.972;8.242;2023-02-18T17:06:42;10.90;99.90
47857;DHT22;33618;49.972;8.242;2023-02-18T17:09:20;10.90;99.90
47857;DHT22;33618;49.972;8.242;2023-02-18T17:11:50;10.90;99.90
47857;DHT22;33618;49.972;8.242;2023-02-18T17:14:19;10.90;99.90
47857;DHT22;33618;49.972;8.242;2023-02-18T17:16:52;10.90;99.90
47857;DHT22;33618;49.972;8.242;2023-02-18T17:19:20;10.90;99.90
47857;DHT22;33618;49.972;8.242;2023-02-18T17:21:47;10.90;99.90
47857;DHT22;33618;49.972;8.242;2023-02-18T17:24:17;10.90;99.90
47857;DHT22;33618;49.972;8.242;2023-02-18T17:26:46;10.90;99.90
47857;DHT22;33618;49.972;8.242;2023-02-18T17:29:13;10.90;99.90
47857;DHT22;33618;49.972;8.242;2023-02-18T17:31:42;10.90;99.90
47857;DHT22;33618;49.972;8.242;2023-02-18T17:34:29;10.90;99.90
47857;DHT22;33618;49.972;8.242;2023-02-18T17:36:58;10.90;99.90
47857;DHT22;33618;49.972;8.242;2023-02-18T17:39:25;10.80;99.90
47857;DHT22;33618;49.972;8.242;2023-02-18T17:41:52;10.80;99.90
47857;DHT22;33618;49.972;8.242;2023-02-18T17:44:21;10.70;99.90
47857;DHT22;33618;49.972;8.242;2023-02-18T17:46:50;10.70;99.90
47857;DHT22;33618;49.972;8.242;2023-02-18T17:49:18;10.70;99.90
47857;DHT22;33618;49.972;8.242;2023-02-18T17:51:45;10.70;99.90
47857;DHT22;33618;49.972;8.242;2023-02-18T17:54:17;10.80;99.90
47857;DHT22;33618;49.972;8.242;2023-02-18T17:56:48;10.70;99.90
47857;DHT22;33618;49.972;8.242;2023-02-18T17:59:15;10.70;99.90
47857;DHT22;33618;49.972;8.242;2023-02-18T18:01:42;10.70;99.90
47857;DHT22;33618;49.972;8.242;2023-02-18T18:04:17;10.70;99.90
47857;DHT22;33618;49.972;8.242;2023-02-18T18:06:45;10.70;99.90
47857;DHT22;33618;49.972;8.242;2023-02-18T18:09:12;10.80;99.90
47857;DHT22;33618;49.972;8.242;2023-02-18T18:11:40;10.80;99.90
47857;DHT22;33618;49.972;8.242;2023-02-18T18:14:12;10.80;99.90
47857;DHT22;33618;49.972;8.242;2023-02-18T18:16:40;10.70;99.90
47857;DHT22;33618;49.972;8.242;2023-02-18T18:19:07;10.80;99.90
47857;DHT22;33618;49.972;8.242;2023-02-18T18:21:35;10.70;99.90
47857;DHT22;33618;49.972;8.242;2023-02-18T18:24:02;10.70;99.90
47857;DHT22;33618;49.972;8.242;2023-02-18T18:26:29;10.70;99.90
47857;DHT22;33618;49.972;8.242;2023-02-18T18:28:56;10.70;99.90
47857;DHT22;33618;49.972;8.242;2023-02-18T18:31:23;10.70;99.90
47857;DHT22;33618;49.972;8.242;2023-02-18T18:33:51;10.70;99.90